createdAt,value
2018-12-31T00:00:22.011Z,102966.83
2018-12-31T00:02:59.039Z,102968.11
2018-12-31T00:05:32.350Z,102970.28
2018-12-31T00:08:04.823Z,102975.87
2018-12-31T00:10:35.422Z,102972.84
2018-12-31T00:13:06.682Z,102970.67
2018-12-31T00:15:42.502Z,102971.56
2018-12-31T00:18:13.195Z,102978.05
2018-12-31T00:20:51.907Z,102969.48
2018-12-31T00:23:22.454Z,102969.99
2018-12-31T00:25:53.019Z,102975.11
2018-12-31T00:28:28.785Z,102971.78
2018-12-31T00:30:59.374Z,102968.43
2018-12-31T00:33:30.111Z,102972.01
2018-12-31T00:36:00.739Z,102969.55
2018-12-31T00:38:31.230Z,102975.17
2018-12-31T00:41:09.680Z,102975.27
2018-12-31T00:43:40.299Z,102978.20
2018-12-31T00:46:10.601Z,102977.81
2018-12-31T00:48:41.216Z,102980.50
2018-12-31T00:51:11.575Z,102982.67
2018-12-31T00:53:44.032Z,102980.89
2018-12-31T00:56:14.387Z,102979.23
2018-12-31T00:58:46.308Z,102976.67
2018-12-31T01:01:17.019Z,102978.84
2018-12-31T01:03:47.690Z,102982.67
2018-12-31T01:06:18.339Z,102972.45
2018-12-31T01:08:50.519Z,102978.42
2018-12-31T01:11:20.834Z,102981.88
2018-12-31T01:13:51.527Z,102973.44
2018-12-31T01:16:26.262Z,102979.45
2018-12-31T01:18:56.903Z,102984.95
2018-12-31T01:21:27.488Z,102984.17
2018-12-31T01:24:05.380Z,102988.11
2018-12-31T01:26:35.725Z,102982.61
2018-12-31T01:29:10.312Z,102985.17
2018-12-31T01:31:40.779Z,102980.81
2018-12-31T01:34:11.757Z,102988.62
2018-12-31T01:36:54.751Z,102987.72
2018-12-31T01:39:24.190Z,102988.20
2018-12-31T01:41:54.576Z,102992.45
2018-12-31T01:44:25.763Z,102984.17
2018-12-31T01:46:56.199Z,102984.17
2018-12-31T01:49:27.986Z,102986.16
2018-12-31T01:52:02.733Z,102978.27
2018-12-31T01:54:33.354Z,102980.81
2018-12-31T01:57:03.719Z,102979.16
2018-12-31T01:59:36.598Z,102982.61
2018-12-31T02:02:08.510Z,102993.83
2018-12-31T02:04:39.997Z,102996.00
2018-12-31T02:07:12.100Z,103008.49
2018-12-31T02:09:42.730Z,102996.98
2018-12-31T02:12:16.367Z,102993.53
2018-12-31T02:14:48.545Z,102980.88
2018-12-31T02:17:18.956Z,102985.61
2018-12-31T02:19:52.789Z,102986.89
2018-12-31T02:22:23.116Z,102989.92
2018-12-31T02:24:54.381Z,103005.01
2018-12-31T02:27:26.648Z,103004.20
2018-12-31T02:29:58.421Z,103005.23
2018-12-31T02:32:33.337Z,102990.27
2018-12-31T02:35:04.249Z,102993.81
2018-12-31T02:37:34.624Z,102990.75
2018-12-31T02:40:06.679Z,102994.48
2018-12-31T02:42:39.157Z,102992.83
2018-12-31T02:45:09.816Z,102993.72
2018-12-31T02:47:40.137Z,102994.48
2018-12-31T02:50:12.515Z,102997.55
2018-12-31T02:52:43.063Z,102989.88
2018-12-31T02:55:15.621Z,102984.26
2018-12-31T02:57:45.948Z,102988.09
2018-12-31T03:00:16.367Z,102988.61
2018-12-31T03:02:49.930Z,102986.81
2018-12-31T03:05:21.663Z,102984.77
2018-12-31T03:07:54.917Z,102976.30
2018-12-31T03:10:27.207Z,102977.19
2018-12-31T03:12:57.533Z,102973.73
2018-12-31T03:15:28.222Z,102980.64
2018-12-31T03:18:00.507Z,102981.53
2018-12-31T03:20:34.180Z,102987.52
2018-12-31T03:23:04.514Z,102973.95
2018-12-31T03:25:41.538Z,102967.56
2018-12-31T03:28:11.881Z,102968.08
2018-12-31T03:30:43.792Z,102965.98
2018-12-31T03:33:21.346Z,102967.27
2018-12-31T03:35:52.577Z,102969.95
2018-12-31T03:38:24.251Z,102966.50
2018-12-31T03:40:57.186Z,102970.84
2018-12-31T03:43:27.444Z,102967.91
2018-12-31T03:45:59.171Z,102961.09
2018-12-31T03:48:33.618Z,102959.05
2018-12-31T03:51:05.533Z,102960.83
2018-12-31T03:53:35.974Z,102965.15
2018-12-31T03:56:15.647Z,102960.03
2018-12-31T03:58:44.735Z,102962.72
2018-12-31T04:01:16.549Z,102960.03
2018-12-31T04:04:01.833Z,102963.61
2018-12-31T04:06:32.457Z,102966.17
2018-12-31T04:09:09.863Z,102966.27
2018-12-31T04:11:43.111Z,102965.36
2018-12-31T04:14:13.840Z,102955.94
2018-12-31T04:16:44.219Z,102956.03
2018-12-31T04:19:19.606Z,102960.77
2018-12-31T04:21:50.025Z,102959.95
2018-12-31T04:24:22.271Z,102949.92
2018-12-31T04:27:03.504Z,102958.67
2018-12-31T04:29:34.850Z,102959.95
2018-12-31T04:32:07.017Z,102964.59
2018-12-31T04:34:37.683Z,102960.38
2018-12-31T04:37:08.053Z,102958.30
2018-12-31T04:39:55.082Z,102955.73
2018-12-31T04:42:17.895Z,102951.00
2018-12-31T04:44:49.584Z,102949.72
2018-12-31T04:47:25.013Z,102948.95
2018-12-31T04:49:56.240Z,102952.79
2018-12-31T04:52:26.719Z,102949.84
2018-12-31T04:54:58.453Z,102959.70
2018-12-31T04:57:28.899Z,102952.02
2018-12-31T05:00:00.974Z,102956.25
2018-12-31T05:02:33.118Z,102958.89
2018-12-31T05:05:06.021Z,102972.20
2018-12-31T05:07:39.466Z,102965.80
2018-12-31T05:10:11.655Z,102967.59
2018-12-31T05:13:00.744Z,102973.98
2018-12-31T05:15:31.477Z,102970.14
2018-12-31T05:18:02.367Z,102974.08
2018-12-31T05:20:34.616Z,102970.84
2018-12-31T05:23:05.452Z,102978.13
2018-12-31T05:25:36.353Z,102974.29
2018-12-31T05:28:06.905Z,102969.56
2018-12-31T05:30:37.652Z,102979.02
2018-12-31T05:33:09.664Z,102976.08
2018-12-31T05:35:41.353Z,102976.17
2018-12-31T05:38:11.783Z,102978.73
2018-12-31T05:40:46.767Z,102974.89
2018-12-31T05:43:17.157Z,102972.84
2018-12-31T05:45:47.847Z,102981.41
2018-12-31T05:48:18.342Z,102988.70
2018-12-31T05:50:50.716Z,102989.98
2018-12-31T05:53:21.127Z,102996.38
2018-12-31T05:55:51.580Z,102999.41
2018-12-31T05:58:22.190Z,102995.58
2018-12-31T06:00:53.022Z,102997.24
2018-12-31T06:03:38.691Z,102997.24
2018-12-31T06:05:57.936Z,103002.36
2018-12-31T06:08:28.288Z,103003.25
2018-12-31T06:11:02.428Z,103000.70
2018-12-31T06:13:33.195Z,103007.09
2018-12-31T06:16:04.687Z,103002.78
2018-12-31T06:18:36.635Z,103001.50
2018-12-31T06:21:06.940Z,103002.78
2018-12-31T06:23:37.700Z,102999.71
2018-12-31T06:26:13.594Z,103007.39
2018-12-31T06:28:43.939Z,103006.61
2018-12-31T06:31:14.358Z,102998.94
2018-12-31T06:33:46.108Z,102997.92
2018-12-31T06:36:16.504Z,102995.27
2018-12-31T06:38:56.785Z,102989.05
2018-12-31T06:41:25.233Z,102990.48
2018-12-31T06:43:56.188Z,102993.43
2018-12-31T06:46:26.549Z,103001.91
2018-12-31T06:48:58.843Z,102996.88
2018-12-31T06:51:29.200Z,103001.78
2018-12-31T06:53:59.907Z,103005.02
2018-12-31T06:56:38.588Z,103008.76
2018-12-31T06:59:10.638Z,103019.09
2018-12-31T07:01:41.386Z,103018.02
2018-12-31T07:04:24.434Z,103021.57
2018-12-31T07:06:52.071Z,103034.78
2018-12-31T07:09:29.229Z,103038.72
2018-12-31T07:11:58.218Z,103047.37
2018-12-31T07:14:28.730Z,103053.00
2018-12-31T07:17:04.523Z,103065.12
2018-12-31T07:19:36.776Z,103064.73
2018-12-31T07:22:08.796Z,103071.23
2018-12-31T07:24:55.844Z,103072.12
2018-12-31T07:27:15.177Z,103065.72
2018-12-31T07:29:45.502Z,103062.78
2018-12-31T07:32:20.637Z,103068.80
2018-12-31T07:34:54.347Z,103076.34
2018-12-31T07:37:25.065Z,103068.67
2018-12-31T07:42:35.044Z,103071.64
2018-12-31T07:45:05.600Z,103077.14
2018-12-31T07:47:37.359Z,103083.92
2018-12-31T07:50:08.016Z,103076.77
2018-12-31T07:52:41.667Z,103083.16
2018-12-31T07:55:13.707Z,103084.92
2018-12-31T07:57:44.437Z,103086.20
2018-12-31T08:00:14.799Z,103093.78
2018-12-31T08:02:47.351Z,103095.95
2018-12-31T08:05:18.902Z,103098.00
2018-12-31T08:07:56.125Z,103103.63
2018-12-31T08:10:26.722Z,103104.40
2018-12-31T08:12:57.393Z,103106.19
2018-12-31T08:15:30.730Z,103107.95
2018-12-31T08:18:01.358Z,103107.95
2018-12-31T08:20:31.663Z,103107.95
2018-12-31T08:23:04.643Z,103114.34
2018-12-31T08:25:34.929Z,103111.41
2018-12-31T08:28:06.642Z,103111.78
2018-12-31T08:30:37.001Z,103119.97
2018-12-31T08:33:09.235Z,103114.34
2018-12-31T08:35:48.347Z,103113.06
2018-12-31T08:38:19.018Z,103111.02
2018-12-31T08:40:49.392Z,103113.58
2018-12-31T08:43:21.717Z,103112.52
2018-12-31T08:45:53.408Z,103114.27
2018-12-31T08:48:24.445Z,103119.61
2018-12-31T08:50:55.021Z,103120.41
2018-12-31T08:53:36.937Z,103118.34
2018-12-31T08:56:02.010Z,103123.67
2018-12-31T08:58:33.760Z,103114.46
2018-12-31T09:01:11.162Z,103121.85
2018-12-31T09:03:43.602Z,103115.96
2018-12-31T09:06:17.033Z,103121.17
2018-12-31T09:08:47.670Z,103124.63
2018-12-31T09:11:25.612Z,103119.98
2018-12-31T09:13:56.480Z,103120.72
2018-12-31T09:16:26.798Z,103118.37
2018-12-31T09:18:58.846Z,103124.83
2018-12-31T09:21:30.501Z,103116.48
2018-12-31T09:24:02.643Z,103118.75
2018-12-31T09:26:33.217Z,103117.47
2018-12-31T09:29:07.548Z,103115.63
2018-12-31T09:31:37.983Z,103110.98
2018-12-31T09:34:33.233Z,103117.13
2018-12-31T09:36:42.289Z,103119.02
2018-12-31T09:39:13.046Z,103120.17
2018-12-31T09:41:45.250Z,103121.45
2018-12-31T09:44:15.953Z,103123.23
2018-12-31T09:46:54.118Z,103135.05
2018-12-31T09:49:23.692Z,103131.47
2018-12-31T09:51:57.167Z,103130.19
2018-12-31T09:54:29.074Z,103127.16
2018-12-31T09:56:59.728Z,103129.72
2018-12-31T09:59:30.435Z,103134.16
2018-12-31T10:02:00.874Z,103131.93
2018-12-31T10:04:38.076Z,103129.75
2018-12-31T10:07:11.450Z,103128.98
2018-12-31T10:09:50.651Z,103133.59
2018-12-31T10:12:20.894Z,103136.38
2018-12-31T10:15:01.419Z,103134.25
2018-12-31T10:17:31.863Z,103131.36
2018-12-31T10:20:03.797Z,103127.95
2018-12-31T10:22:34.490Z,103128.08
2018-12-31T10:25:12.511Z,103129.20
2018-12-31T10:27:44.496Z,103134.20
2018-12-31T10:30:17.826Z,103129.97
2018-12-31T10:32:49.202Z,103136.54
2018-12-31T10:35:23.761Z,103132.19
2018-12-31T10:37:54.828Z,103134.87
2018-12-31T10:40:25.178Z,103138.33
2018-12-31T10:42:58.400Z,103129.97
2018-12-31T10:45:29.009Z,103138.80
2018-12-31T10:47:59.952Z,103132.74
2018-12-31T10:50:32.626Z,103133.56
2018-12-31T10:53:03.778Z,103135.36
2018-12-31T10:55:34.762Z,103131.89
2018-12-31T10:58:05.150Z,103135.48
2018-12-31T11:00:35.805Z,103130.83
2018-12-31T11:03:11.912Z,103124.80
2018-12-31T11:05:42.549Z,103124.08
2018-12-31T11:08:13.047Z,103119.77
2018-12-31T11:10:43.705Z,103116.69
2018-12-31T11:13:14.125Z,103114.64
2018-12-31T11:15:46.039Z,103110.33
2018-12-31T11:18:16.465Z,103117.42
2018-12-31T11:20:46.956Z,103122.16
2018-12-31T11:23:18.589Z,103115.24
2018-12-31T11:25:49.037Z,103115.84
2018-12-31T11:28:23.657Z,103109.91
2018-12-31T11:30:54.253Z,103098.11
2018-12-31T11:33:24.685Z,103100.59
2018-12-31T11:35:57.005Z,103090.94
2018-12-31T11:38:27.509Z,103098.53
2018-12-31T11:41:13.494Z,103089.06
2018-12-31T11:43:36.667Z,103087.98
2018-12-31T11:46:08.458Z,103086.83
2018-12-31T11:48:38.763Z,103087.59
2018-12-31T11:51:09.481Z,103086.41
2018-12-31T11:53:41.689Z,103082.17
2018-12-31T11:56:14.011Z,103071.02
2018-12-31T11:58:44.358Z,103071.02
2018-12-31T12:01:20.454Z,103077.97
2018-12-31T12:03:51.275Z,103077.16
2018-12-31T12:06:22.008Z,103072.33
2018-12-31T12:09:00.479Z,103075.29
2018-12-31T12:11:31.293Z,103079.31
2018-12-31T12:14:04.961Z,103074.37
2018-12-31T12:16:37.393Z,103067.19
2018-12-31T12:19:09.735Z,103059.77
2018-12-31T12:21:42.897Z,103057.20
2018-12-31T12:24:14.573Z,103069.55
2018-12-31T12:26:45.354Z,103073.06
2018-12-31T12:29:17.212Z,103071.06
2018-12-31T12:31:47.836Z,103061.20
2018-12-31T12:34:18.156Z,103062.09
2018-12-31T12:36:49.114Z,103063.97
2018-12-31T12:39:19.541Z,103063.23
2018-12-31T12:41:55.008Z,103063.23
2018-12-31T12:44:25.635Z,103063.52
2018-12-31T12:46:58.348Z,103063.44
2018-12-31T12:49:28.363Z,103061.16
2018-12-31T12:51:58.687Z,103060.68
2018-12-31T12:54:36.559Z,103061.78
2018-12-31T12:57:07.357Z,103067.00
2018-12-31T12:59:39.055Z,103066.38
2018-12-31T13:02:11.561Z,103061.67
2018-12-31T13:04:42.882Z,103066.58
2018-12-31T13:07:16.544Z,103058.60
2018-12-31T13:09:50.394Z,103058.60
2018-12-31T13:12:32.373Z,103062.55
2018-12-31T13:15:03.276Z,103063.63
2018-12-31T13:17:50.187Z,103060.68
2018-12-31T13:20:10.351Z,103057.20
2018-12-31T13:22:40.999Z,103059.50
2018-12-31T13:25:13.048Z,103058.69
2018-12-31T13:27:43.409Z,103060.09
2018-12-31T13:30:16.453Z,103059.19
2018-12-31T13:32:48.277Z,103060.89
2018-12-31T13:35:18.564Z,103058.02
2018-12-31T13:37:55.553Z,103052.33
2018-12-31T13:40:26.653Z,103050.23
2018-12-31T13:42:57.438Z,103048.48
2018-12-31T13:45:31.166Z,103056.73
2018-12-31T13:48:03.423Z,103048.58
2018-12-31T13:50:34.327Z,103048.76
2018-12-31T13:53:05.239Z,103049.34
2018-12-31T13:55:35.627Z,103048.27
2018-12-31T13:58:06.020Z,103046.69
2018-12-31T14:00:38.244Z,103050.44
2018-12-31T14:03:16.924Z,103044.92
2018-12-31T14:05:41.018Z,103044.53
2018-12-31T14:08:11.665Z,103052.81
2018-12-31T14:10:43.799Z,103045.24
2018-12-31T14:13:17.476Z,103051.66
2018-12-31T14:15:56.083Z,103056.97
2018-12-31T14:18:26.591Z,103062.58
2018-12-31T14:20:57.389Z,103052.80
2018-12-31T14:23:30.870Z,103053.91
2018-12-31T14:26:01.325Z,103062.47
2018-12-31T14:28:35.522Z,103063.25
2018-12-31T14:31:06.425Z,103063.04
2018-12-31T14:33:36.797Z,103063.61
2018-12-31T14:36:07.141Z,103063.31
2018-12-31T14:38:37.965Z,103060.89
2018-12-31T14:41:11.259Z,103067.09
2018-12-31T14:43:43.500Z,103065.13
2018-12-31T14:46:13.805Z,103072.61
2018-12-31T14:48:44.498Z,103077.41
2018-12-31T14:51:15.459Z,103073.98
2018-12-31T14:53:54.528Z,103076.03
2018-12-31T14:56:24.968Z,103081.45
2018-12-31T14:59:07.377Z,103080.44
2018-12-31T15:01:36.847Z,103087.14
2018-12-31T15:04:07.389Z,103084.07
2018-12-31T15:06:44.614Z,103086.16
2018-12-31T15:09:15.204Z,103080.53
2018-12-31T15:11:50.238Z,103078.77
2018-12-31T15:14:22.488Z,103083.39
2018-12-31T15:16:52.884Z,103084.16
2018-12-31T15:19:23.343Z,103084.45
2018-12-31T15:21:53.980Z,103090.34
2018-12-31T15:24:27.466Z,103088.26
2018-12-31T15:26:59.212Z,103088.26
2018-12-31T15:29:31.658Z,103095.17
2018-12-31T15:32:02.941Z,103095.55
2018-12-31T15:34:35.337Z,103098.41
2018-12-31T15:37:05.908Z,103097.13
2018-12-31T15:39:37.655Z,103098.80
2018-12-31T15:42:10.526Z,103093.84
2018-12-31T15:44:41.055Z,103098.49
2018-12-31T15:47:14.282Z,103095.81
2018-12-31T15:49:50.224Z,103094.02
2018-12-31T15:52:24.239Z,103093.16
2018-12-31T15:54:56.242Z,103089.09
2018-12-31T15:57:26.766Z,103089.09
2018-12-31T16:00:09.958Z,103094.70
2018-12-31T16:02:40.577Z,103089.09
2018-12-31T16:05:14.073Z,103097.17
2018-12-31T16:07:46.203Z,103098.33
2018-12-31T16:10:18.022Z,103090.17
2018-12-31T16:12:49.467Z,103095.16
2018-12-31T16:15:29.310Z,103095.58
2018-12-31T16:17:58.010Z,103100.19
2018-12-31T16:20:28.407Z,103097.13
2018-12-31T16:23:01.155Z,103097.92
2018-12-31T16:25:35.770Z,103095.75
2018-12-31T16:28:07.383Z,103102.03
2018-12-31T16:30:37.854Z,103092.17
2018-12-31T16:33:12.196Z,103095.62
2018-12-31T16:35:42.559Z,103101.55
2018-12-31T16:38:14.523Z,103104.11
2018-12-31T16:40:46.149Z,103098.48
2018-12-31T16:43:17.959Z,103097.53
2018-12-31T16:45:49.998Z,103097.53
2018-12-31T16:48:23.318Z,103098.64
2018-12-31T16:50:53.647Z,103098.27
2018-12-31T16:53:26.518Z,103100.31
2018-12-31T16:55:56.946Z,103100.73
2018-12-31T16:58:34.534Z,103106.33
2018-12-31T17:01:04.668Z,103107.22
2018-12-31T17:03:36.627Z,103104.45
2018-12-31T17:06:17.113Z,103107.13
2018-12-31T17:08:44.710Z,103098.55
2018-12-31T17:11:15.047Z,103096.89
2018-12-31T17:13:50.304Z,103087.59
2018-12-31T17:16:21.203Z,103087.59
2018-12-31T17:19:00.331Z,103096.38
2018-12-31T17:21:29.529Z,103092.92
2018-12-31T17:24:02.602Z,103096.89
2018-12-31T17:26:34.898Z,103102.39
2018-12-31T17:29:05.631Z,103098.34
2018-12-31T17:31:36.171Z,103106.86
2018-12-31T17:34:11.776Z,103106.13
2018-12-31T17:36:45.954Z,103103.35
2018-12-31T17:39:20.403Z,103106.50
2018-12-31T17:41:50.836Z,103100.16
2018-12-31T17:44:29.588Z,103096.88
2018-12-31T17:47:02.126Z,103093.62
2018-12-31T17:49:33.043Z,103097.84
2018-12-31T17:52:03.442Z,103100.78
2018-12-31T17:54:34.356Z,103103.12
2018-12-31T17:57:06.859Z,103095.73
2018-12-31T17:59:37.152Z,103093.43
2018-12-31T18:02:10.519Z,103093.63
2018-12-31T18:04:41.300Z,103091.83
2018-12-31T18:07:17.231Z,103087.86
2018-12-31T18:09:49.172Z,103090.33
2018-12-31T18:12:20.590Z,103101.75
2018-12-31T18:14:52.573Z,103097.91
2018-12-31T18:17:22.971Z,103098.00
2018-12-31T18:19:56.867Z,103095.54
2018-12-31T18:22:27.585Z,103101.68
2018-12-31T18:24:58.111Z,103101.39
2018-12-31T18:27:28.610Z,103100.34
2018-12-31T18:29:58.964Z,103094.93
2018-12-31T18:32:29.463Z,103097.23
2018-12-31T18:34:59.929Z,103096.34
2018-12-31T18:37:30.830Z,103096.95
2018-12-31T18:40:01.736Z,103096.05
2018-12-31T18:42:33.745Z,103095.95
2018-12-31T18:45:09.858Z,103101.07
2018-12-31T18:47:40.532Z,103098.09
2018-12-31T18:50:11.013Z,103100.05
2018-12-31T18:52:41.688Z,103098.29
2018-12-31T18:55:23.233Z,103101.39
2018-12-31T18:57:54.083Z,103106.52
2018-12-31T19:00:24.763Z,103106.64
2018-12-31T19:02:55.379Z,103104.94
2018-12-31T19:05:29.988Z,103106.06
2018-12-31T19:08:02.325Z,103105.77
2018-12-31T19:10:33.180Z,103105.30
2018-12-31T19:13:03.982Z,103105.16
2018-12-31T19:15:34.644Z,103102.98
2018-12-31T19:18:06.924Z,103104.56
2018-12-31T19:20:40.088Z,103100.72
2018-12-31T19:23:10.447Z,103097.02
2018-12-31T19:25:51.169Z,103100.43
2018-12-31T19:28:25.457Z,103107.11
2018-12-31T19:30:56.168Z,103108.30
2018-12-31T19:33:26.546Z,103108.30
2018-12-31T19:36:01.926Z,103097.17
2018-12-31T19:38:32.352Z,103094.10
2018-12-31T19:41:13.819Z,103094.77
2018-12-31T19:43:44.144Z,103094.39
2018-12-31T19:46:14.948Z,103092.73
2018-12-31T19:48:53.377Z,103091.83
2018-12-31T19:51:26.715Z,103085.53
2018-12-31T19:53:57.288Z,103081.69
2018-12-31T19:56:27.982Z,103074.02
2018-12-31T19:59:00.998Z,103079.64
2018-12-31T20:01:31.089Z,103073.47
2018-12-31T20:04:01.413Z,103069.73
2018-12-31T20:06:32.105Z,103059.91
2018-12-31T20:09:02.568Z,103064.61
2018-12-31T20:11:34.596Z,103050.45
2018-12-31T20:14:18.649Z,103047.12
2018-12-31T20:16:49.314Z,103040.59
2018-12-31T20:19:20.308Z,103035.39
2018-12-31T20:21:51.020Z,103033.59
2018-12-31T20:24:30.819Z,103035.55
2018-12-31T20:27:05.217Z,103036.99
2018-12-31T20:29:52.018Z,103031.78
2018-12-31T20:32:34.480Z,103028.33
2018-12-31T20:35:07.782Z,103039.55
2018-12-31T20:37:40.133Z,103021.20
2018-12-31T20:40:10.642Z,103029.61
2018-12-31T20:42:50.236Z,103027.66
2018-12-31T20:45:30.128Z,103028.04
2018-12-31T20:48:01.958Z,103028.42
2018-12-31T20:50:33.031Z,103039.16
2018-12-31T20:53:03.833Z,103030.21
2018-12-31T20:55:34.250Z,103030.59
2018-12-31T20:58:11.050Z,103032.17
2018-12-31T21:00:54.579Z,103030.89
2018-12-31T21:03:25.213Z,103030.89
2018-12-31T21:05:56.327Z,103024.11
2018-12-31T21:08:27.060Z,103021.27
2018-12-31T21:11:01.942Z,103018.92
2018-12-31T21:13:34.197Z,103014.95
2018-12-31T21:16:05.545Z,103021.80
2018-12-31T21:18:37.315Z,103012.55
2018-12-31T21:21:09.731Z,103016.06
2018-12-31T21:23:41.269Z,103009.61
2018-12-31T21:26:11.963Z,103005.46
2018-12-31T21:28:42.760Z,103004.22
2018-12-31T21:31:13.111Z,103008.24
2018-12-31T21:33:48.954Z,103011.34
2018-12-31T21:36:19.271Z,103013.81
2018-12-31T21:38:50.039Z,103007.80
2018-12-31T21:41:20.403Z,103007.80
2018-12-31T21:43:51.072Z,103008.56
2018-12-31T21:46:22.733Z,103011.12
2018-12-31T21:48:55.639Z,103009.55
2018-12-31T21:51:26.090Z,103008.28
2018-12-31T21:53:57.845Z,103015.47
2018-12-31T21:56:45.630Z,103017.13
2018-12-31T21:59:16.233Z,103009.84
2018-12-31T22:01:46.590Z,103005.02
2018-12-31T22:04:17.951Z,103008.72
2018-12-31T22:07:03.573Z,103015.02
2018-12-31T22:09:21.767Z,103012.94
2018-12-31T22:11:52.433Z,103008.63
2018-12-31T22:14:23.165Z,103012.46
2018-12-31T22:16:53.580Z,103012.94
2018-12-31T22:19:26.726Z,103008.85
2018-12-31T22:22:01.719Z,103010.13
2018-12-31T22:24:33.359Z,103011.41
2018-12-31T22:27:03.987Z,103008.85
2018-12-31T22:29:34.366Z,103003.99
2018-12-31T22:32:04.779Z,103009.11
2018-12-31T22:34:37.523Z,103006.84
2018-12-31T22:37:14.109Z,103007.22
2018-12-31T22:39:46.056Z,103003.58
2018-12-31T22:42:16.430Z,103006.30
2018-12-31T22:44:47.045Z,103000.83
2018-12-31T22:47:27.229Z,103005.45
2018-12-31T22:50:03.025Z,102994.02
2018-12-31T22:52:33.962Z,102994.02
2018-12-31T22:55:04.550Z,102997.56
2018-12-31T22:57:47.373Z,102996.67
2018-12-31T23:00:29.139Z,102995.77
2018-12-31T23:03:01.104Z,102993.22
2018-12-31T23:05:42.695Z,102989.90
2018-12-31T23:08:16.451Z,102990.66
2018-12-31T23:10:49.848Z,102977.89
2018-12-31T23:13:25.898Z,102976.61
2018-12-31T23:15:57.766Z,102977.12
2018-12-31T23:18:35.835Z,102978.40
2018-12-31T23:21:10.136Z,102972.77
2018-12-31T23:23:42.676Z,102971.50
2018-12-31T23:26:14.920Z,102973.58
2018-12-31T23:28:52.466Z,102974.44
2018-12-31T23:31:17.541Z,102981.24
2018-12-31T23:33:47.804Z,102972.39
2018-12-31T23:36:19.760Z,102966.77
2018-12-31T23:38:50.304Z,102971.50
2018-12-31T23:41:20.800Z,102966.90
2018-12-31T23:44:10.897Z,102961.27
2018-12-31T23:46:36.180Z,102966.90
2018-12-31T23:49:06.693Z,102960.00
2018-12-31T23:51:38.683Z,102956.25
2018-12-31T23:54:09.218Z,102956.25
2018-12-31T23:56:39.830Z,102971.20
2018-12-31T23:59:10.836Z,102963.98
